sensor_id;sensor_type;location;lat;lon;timestamp;P1;durP1;ratioP1;P2;durP2;ratioP2
5977;SDS011;3015;51.390;12.256;2022-08-21T00:01:17;39.63;;;35.30;;
5977;SDS011;3015;51.390;12.256;2022-08-21T00:03:46;45.67;;;37.20;;
5977;SDS011;3015;51.390;12.256;2022-08-21T00:06:11;42.87;;;38.27;;
5977;SDS011;3015;51.390;12.256;2022-08-21T00:08:37;45.30;;;36.30;;
5977;SDS011;3015;51.390;12.256;2022-08-21T00:11:03;45.10;;;36.27;;
5977;SDS011;3015;51.390;12.256;2022-08-21T00:13:30;48.13;;;38.33;;
5977;SDS011;3015;51.390;12.256;2022-08-21T00:15:57;45.20;;;38.37;;
5977;SDS011;3015;51.390;12.256;2022-08-21T00:18:23;45.70;;;34.87;;
5977;SDS011;3015;51.390;12.256;2022-08-21T00:20:49;34.83;;;31.30;;
5977;SDS011;3015;51.390;12.256;2022-08-21T00:23:14;33.17;;;28.00;;
5977;SDS011;3015;51.390;12.256;2022-08-21T00:25:41;33.23;;;29.63;;
5977;SDS011;3015;51.390;12.256;2022-08-21T00:28:08;35.07;;;30.63;;
5977;SDS011;3015;51.390;12.256;2022-08-21T00:30:35;35.50;;;31.80;;
5977;SDS011;3015;51.390;12.256;2022-08-21T00:33:00;34.33;;;30.83;;
5977;SDS011;3015;51.390;12.256;2022-08-21T00:35:28;32.10;;;28.80;;
5977;SDS011;3015;51.390;12.256;2022-08-21T00:37:59;35.10;;;31.50;;
5977;SDS011;3015;51.390;12.256;2022-08-21T00:40:29;36.07;;;32.27;;
5977;SDS011;3015;51.390;12.256;2022-08-21T00:43:18;34.63;;;30.57;;
5977;SDS011;3015;51.390;12.256;2022-08-21T00:45:48;30.93;;;27.73;;
5977;SDS011;3015;51.390;12.256;2022-08-21T00:48:14;32.70;;;29.30;;
5977;SDS011;3015;51.390;12.256;2022-08-21T00:50:43;30.10;;;26.70;;
5977;SDS011;3015;51.390;12.256;2022-08-21T00:53:20;33.20;;;29.47;;
5977;SDS011;3015;51.390;12.256;2022-08-21T00:55:47;35.07;;;31.13;;
5977;SDS011;3015;51.390;12.256;2022-08-21T00:58:14;30.40;;;27.40;;
5977;SDS011;3015;51.390;12.256;2022-08-21T01:00:41;33.37;;;28.90;;
5977;SDS011;3015;51.390;12.256;2022-08-21T01:03:10;35.50;;;31.63;;
5977;SDS011;3015;51.390;12.256;2022-08-21T01:05:39;32.40;;;27.03;;
5977;SDS011;3015;51.390;12.256;2022-08-21T01:08:05;27.97;;;24.87;;
5977;SDS011;3015;51.390;12.256;2022-08-21T01:10:32;30.47;;;27.20;;
5977;SDS011;3015;51.390;12.256;2022-08-21T01:13:00;35.50;;;28.77;;
5977;SDS011;3015;51.390;12.256;2022-08-21T01:15:30;31.67;;;28.30;;
5977;SDS011;3015;51.390;12.256;2022-08-21T01:17:59;39.87;;;32.53;;
5977;SDS011;3015;51.390;12.256;2022-08-21T01:20:26;38.73;;;31.90;;
5977;SDS011;3015;51.390;12.256;2022-08-21T01:22:52;37.73;;;31.60;;
5977;SDS011;3015;51.390;12.256;2022-08-21T01:25:18;32.83;;;29.33;;
5977;SDS011;3015;51.390;12.256;2022-08-21T01:27:46;38.20;;;31.57;;
5977;SDS011;3015;51.390;12.256;2022-08-21T01:30:17;36.40;;;32.60;;
5977;SDS011;3015;51.390;12.256;2022-08-21T01:32:46;31.60;;;28.30;;
5977;SDS011;3015;51.390;12.256;2022-08-21T01:35:14;31.77;;;28.47;;
5977;SDS011;3015;51.390;12.256;2022-08-21T01:37:41;38.57;;;29.80;;
5977;SDS011;3015;51.390;12.256;2022-08-21T01:40:07;34.63;;;29.33;;
5977;SDS011;3015;51.390;12.256;2022-08-21T01:42:33;36.60;;;30.50;;
5977;SDS011;3015;51.390;12.256;2022-08-21T01:44:59;26.50;;;23.80;;
5977;SDS011;3015;51.390;12.256;2022-08-21T01:47:25;27.50;;;24.60;;
5977;SDS011;3015;51.390;12.256;2022-08-21T01:49:51;25.40;;;22.77;;
5977;SDS011;3015;51.390;12.256;2022-08-21T01:52:17;23.10;;;20.70;;
5977;SDS011;3015;51.390;12.256;2022-08-21T01:54:43;22.43;;;20.30;;
5977;SDS011;3015;51.390;12.256;2022-08-21T01:57:09;25.10;;;21.53;;
5977;SDS011;3015;51.390;12.256;2022-08-21T01:59:35;21.83;;;19.50;;
5977;SDS011;3015;51.390;12.256;2022-08-21T02:02:01;19.73;;;17.60;;
5977;SDS011;3015;51.390;12.256;2022-08-21T02:04:28;20.90;;;18.87;;
5977;SDS011;3015;51.390;12.256;2022-08-21T02:06:53;21.43;;;19.30;;
5977;SDS011;3015;51.390;12.256;2022-08-21T02:09:19;20.00;;;17.90;;
5977;SDS011;3015;51.390;12.256;2022-08-21T02:11:46;19.43;;;16.60;;
5977;SDS011;3015;51.390;12.256;2022-08-21T02:14:13;18.63;;;16.70;;
5977;SDS011;3015;51.390;12.256;2022-08-21T02:16:43;21.40;;;17.60;;
5977;SDS011;3015;51.390;12.256;2022-08-21T02:19:10;17.50;;;15.47;;
5977;SDS011;3015;51.390;12.256;2022-08-21T02:21:38;19.00;;;16.70;;
5977;SDS011;3015;51.390;12.256;2022-08-21T02:24:04;18.37;;;16.00;;
5977;SDS011;3015;51.390;12.256;2022-08-21T02:26:30;19.10;;;17.23;;
5977;SDS011;3015;51.390;12.256;2022-08-21T02:28:56;19.50;;;17.60;;
5977;SDS011;3015;51.390;12.256;2022-08-21T02:31:22;18.90;;;17.17;;
5977;SDS011;3015;51.390;12.256;2022-08-21T02:33:49;18.27;;;16.57;;
5977;SDS011;3015;51.390;12.256;2022-08-21T02:36:15;18.30;;;16.50;;
5977;SDS011;3015;51.390;12.256;2022-08-21T02:38:41;17.30;;;14.70;;
5977;SDS011;3015;51.390;12.256;2022-08-21T02:41:09;18.03;;;16.37;;
5977;SDS011;3015;51.390;12.256;2022-08-21T02:43:42;16.97;;;15.57;;
5977;SDS011;3015;51.390;12.256;2022-08-21T02:46:08;16.80;;;15.20;;
5977;SDS011;3015;51.390;12.256;2022-08-21T02:48:36;16.40;;;14.70;;
5977;SDS011;3015;51.390;12.256;2022-08-21T02:51:04;15.53;;;13.70;;
5977;SDS011;3015;51.390;12.256;2022-08-21T02:53:32;17.40;;;14.03;;
5977;SDS011;3015;51.390;12.256;2022-08-21T02:55:59;17.37;;;15.30;;
5977;SDS011;3015;51.390;12.256;2022-08-21T02:58:29;18.67;;;14.83;;
5977;SDS011;3015;51.390;12.256;2022-08-21T03:00:58;15.87;;;14.27;;
5977;SDS011;3015;51.390;12.256;2022-08-21T03:03:25;14.80;;;13.50;;
5977;SDS011;3015;51.390;12.256;2022-08-21T03:05:52;14.43;;;13.00;;
5977;SDS011;3015;51.390;12.256;2022-08-21T03:08:18;13.60;;;12.37;;
5977;SDS011;3015;51.390;12.256;2022-08-21T03:10:46;14.37;;;13.17;;
5977;SDS011;3015;51.390;12.256;2022-08-21T03:13:13;12.53;;;11.53;;
5977;SDS011;3015;51.390;12.256;2022-08-21T03:15:40;12.93;;;11.80;;
5977;SDS011;3015;51.390;12.256;2022-08-21T03:18:07;11.93;;;10.93;;
5977;SDS011;3015;51.390;12.256;2022-08-21T03:20:34;13.83;;;11.17;;
5977;SDS011;3015;51.390;12.256;2022-08-21T03:23:01;11.47;;;10.40;;
5977;SDS011;3015;51.390;12.256;2022-08-21T03:25:28;12.27;;;11.17;;
5977;SDS011;3015;51.390;12.256;2022-08-21T03:27:58;12.57;;;11.50;;
5977;SDS011;3015;51.390;12.256;2022-08-21T03:30:25;14.73;;;11.80;;
5977;SDS011;3015;51.390;12.256;2022-08-21T03:32:51;11.77;;;10.77;;
5977;SDS011;3015;51.390;12.256;2022-08-21T03:35:17;10.17;;;9.17;;
5977;SDS011;3015;51.390;12.256;2022-08-21T03:37:44;11.33;;;10.13;;
5977;SDS011;3015;51.390;12.256;2022-08-21T03:40:10;10.37;;;9.37;;
5977;SDS011;3015;51.390;12.256;2022-08-21T03:42:37;10.80;;;9.80;;
5977;SDS011;3015;51.390;12.256;2022-08-21T03:45:04;9.93;;;8.70;;
5977;SDS011;3015;51.390;12.256;2022-08-21T03:47:30;10.30;;;9.30;;
5977;SDS011;3015;51.390;12.256;2022-08-21T03:49:56;9.67;;;8.57;;
5977;SDS011;3015;51.390;12.256;2022-08-21T03:52:22;11.50;;;10.07;;
5977;SDS011;3015;51.390;12.256;2022-08-21T03:54:48;9.37;;;8.60;;
5977;SDS011;3015;51.390;12.256;2022-08-21T03:57:15;10.07;;;9.23;;
5977;SDS011;3015;51.390;12.256;2022-08-21T03:59:41;9.80;;;8.47;;
5977;SDS011;3015;51.390;12.256;2022-08-21T04:02:08;10.63;;;9.83;;
5977;SDS011;3015;51.390;12.256;2022-08-21T04:04:34;10.60;;;9.63;;
5977;SDS011;3015;51.390;12.256;2022-08-21T04:07:00;10.33;;;9.33;;
5977;SDS011;3015;51.390;12.256;2022-08-21T04:09:26;8.67;;;7.87;;
5977;SDS011;3015;51.390;12.256;2022-08-21T04:11:52;11.80;;;10.37;;
5977;SDS011;3015;51.390;12.256;2022-08-21T04:14:18;11.80;;;10.80;;
5977;SDS011;3015;51.390;12.256;2022-08-21T04:16:45;10.63;;;9.23;;
5977;SDS011;3015;51.390;12.256;2022-08-21T04:19:11;11.50;;;10.13;;
5977;SDS011;3015;51.390;12.256;2022-08-21T04:21:40;10.37;;;9.30;;
5977;SDS011;3015;51.390;12.256;2022-08-21T04:24:07;9.80;;;9.07;;
5977;SDS011;3015;51.390;12.256;2022-08-21T04:26:35;10.60;;;9.70;;
5977;SDS011;3015;51.390;12.256;2022-08-21T04:29:02;10.73;;;9.63;;
5977;SDS011;3015;51.390;12.256;2022-08-21T04:31:29;9.83;;;8.93;;
5977;SDS011;3015;51.390;12.256;2022-08-21T04:33:55;10.50;;;9.60;;
5977;SDS011;3015;51.390;12.256;2022-08-21T04:36:21;10.37;;;9.33;;
5977;SDS011;3015;51.390;12.256;2022-08-21T04:38:48;10.40;;;9.40;;
5977;SDS011;3015;51.390;12.256;2022-08-21T04:41:13;12.83;;;10.07;;
5977;SDS011;3015;51.390;12.256;2022-08-21T04:43:39;10.43;;;9.63;;
5977;SDS011;3015;51.390;12.256;2022-08-21T04:46:06;10.60;;;9.80;;
5977;SDS011;3015;51.390;12.256;2022-08-21T04:48:31;11.23;;;10.20;;
5977;SDS011;3015;51.390;12.256;2022-08-21T04:51:00;9.97;;;9.07;;
5977;SDS011;3015;51.390;12.256;2022-08-21T04:53:35;12.47;;;11.17;;
5977;SDS011;3015;51.390;12.256;2022-08-21T04:56:13;10.40;;;9.50;;
5977;SDS011;3015;51.390;12.256;2022-08-21T04:58:43;11.20;;;9.70;;
5977;SDS011;3015;51.390;12.256;2022-08-21T05:01:13;12.13;;;11.13;;
5977;SDS011;3015;51.390;12.256;2022-08-21T05:03:42;12.40;;;11.20;;
5977;SDS011;3015;51.390;12.256;2022-08-21T05:06:08;11.67;;;10.57;;
5977;SDS011;3015;51.390;12.256;2022-08-21T05:08:36;13.07;;;11.50;;
5977;SDS011;3015;51.390;12.256;2022-08-21T05:11:04;11.60;;;10.30;;
5977;SDS011;3015;51.390;12.256;2022-08-21T05:13:31;11.43;;;10.30;;
5977;SDS011;3015;51.390;12.256;2022-08-21T05:15:57;10.60;;;9.57;;
5977;SDS011;3015;51.390;12.256;2022-08-21T05:18:23;12.30;;;11.10;;
5977;SDS011;3015;51.390;12.256;2022-08-21T05:20:49;10.80;;;9.90;;
5977;SDS011;3015;51.390;12.256;2022-08-21T05:23:15;11.43;;;10.37;;
5977;SDS011;3015;51.390;12.256;2022-08-21T05:25:41;11.20;;;10.27;;
5977;SDS011;3015;51.390;12.256;2022-08-21T05:28:08;11.93;;;11.03;;
5977;SDS011;3015;51.390;12.256;2022-08-21T05:30:35;11.10;;;10.20;;
5977;SDS011;3015;51.390;12.256;2022-08-21T05:33:02;10.23;;;9.33;;
5977;SDS011;3015;51.390;12.256;2022-08-21T05:35:29;11.67;;;10.67;;
5977;SDS011;3015;51.390;12.256;2022-08-21T05:37:56;10.80;;;9.73;;
5977;SDS011;3015;51.390;12.256;2022-08-21T05:40:22;9.50;;;8.80;;
5977;SDS011;3015;51.390;12.256;2022-08-21T05:42:52;11.40;;;10.40;;
5977;SDS011;3015;51.390;12.256;2022-08-21T05:45:18;10.87;;;9.83;;
5977;SDS011;3015;51.390;12.256;2022-08-21T05:47:44;11.10;;;10.20;;
5977;SDS011;3015;51.390;12.256;2022-08-21T05:50:10;9.70;;;8.83;;
5977;SDS011;3015;51.390;12.256;2022-08-21T05:52:36;11.07;;;10.13;;
5977;SDS011;3015;51.390;12.256;2022-08-21T05:55:02;11.70;;;10.13;;
5977;SDS011;3015;51.390;12.256;2022-08-21T05:57:28;10.10;;;9.30;;
5977;SDS011;3015;51.390;12.256;2022-08-21T05:59:54;9.90;;;9.00;;
5977;SDS011;3015;51.390;12.256;2022-08-21T06:02:20;11.00;;;9.90;;
5977;SDS011;3015;51.390;12.256;2022-08-21T06:04:46;9.97;;;9.07;;
5977;SDS011;3015;51.390;12.256;2022-08-21T06:07:13;9.90;;;8.90;;
5977;SDS011;3015;51.390;12.256;2022-08-21T06:09:39;10.47;;;9.47;;
5977;SDS011;3015;51.390;12.256;2022-08-21T06:12:10;9.43;;;8.63;;
5977;SDS011;3015;51.390;12.256;2022-08-21T06:14:38;9.77;;;8.90;;
5977;SDS011;3015;51.390;12.256;2022-08-21T06:17:06;9.87;;;8.97;;
5977;SDS011;3015;51.390;12.256;2022-08-21T06:19:33;9.73;;;8.83;;
5977;SDS011;3015;51.390;12.256;2022-08-21T06:21:59;9.40;;;8.60;;
5977;SDS011;3015;51.390;12.256;2022-08-21T06:24:25;9.40;;;8.60;;
5977;SDS011;3015;51.390;12.256;2022-08-21T06:26:51;8.97;;;7.17;;
5977;SDS011;3015;51.390;12.256;2022-08-21T06:29:17;7.93;;;7.33;;
5977;SDS011;3015;51.390;12.256;2022-08-21T06:31:44;6.00;;;5.50;;
5977;SDS011;3015;51.390;12.256;2022-08-21T06:34:11;8.00;;;7.20;;
5977;SDS011;3015;51.390;12.256;2022-08-21T06:36:37;7.00;;;6.40;;
5977;SDS011;3015;51.390;12.256;2022-08-21T06:39:03;6.90;;;6.40;;
5977;SDS011;3015;51.390;12.256;2022-08-21T06:41:28;7.43;;;6.53;;
5977;SDS011;3015;51.390;12.256;2022-08-21T06:43:55;6.80;;;6.20;;
5977;SDS011;3015;51.390;12.256;2022-08-21T06:46:21;6.27;;;5.70;;
5977;SDS011;3015;51.390;12.256;2022-08-21T06:48:51;7.20;;;5.63;;
5977;SDS011;3015;51.390;12.256;2022-08-21T06:51:17;5.87;;;5.37;;
5977;SDS011;3015;51.390;12.256;2022-08-21T06:53:43;6.43;;;5.83;;
5977;SDS011;3015;51.390;12.256;2022-08-21T06:56:09;6.47;;;5.50;;
5977;SDS011;3015;51.390;12.256;2022-08-21T06:58:35;6.30;;;5.80;;
5977;SDS011;3015;51.390;12.256;2022-08-21T07:01:01;5.63;;;5.20;;
5977;SDS011;3015;51.390;12.256;2022-08-21T07:03:28;6.07;;;5.67;;
5977;SDS011;3015;51.390;12.256;2022-08-21T07:06:00;5.83;;;5.23;;
5977;SDS011;3015;51.390;12.256;2022-08-21T07:08:26;8.43;;;5.40;;
5977;SDS011;3015;51.390;12.256;2022-08-21T07:10:54;7.53;;;5.50;;
5977;SDS011;3015;51.390;12.256;2022-08-21T07:13:21;4.83;;;4.40;;
5977;SDS011;3015;51.390;12.256;2022-08-21T07:15:47;5.27;;;4.60;;
5977;SDS011;3015;51.390;12.256;2022-08-21T07:18:13;4.20;;;3.90;;
5977;SDS011;3015;51.390;12.256;2022-08-21T07:20:39;4.77;;;4.47;;
5977;SDS011;3015;51.390;12.256;2022-08-21T07:23:08;5.10;;;4.70;;
5977;SDS011;3015;51.390;12.256;2022-08-21T07:25:45;5.33;;;4.83;;
5977;SDS011;3015;51.390;12.256;2022-08-21T07:28:10;6.20;;;4.70;;
5977;SDS011;3015;51.390;12.256;2022-08-21T07:30:36;5.10;;;4.57;;
5977;SDS011;3015;51.390;12.256;2022-08-21T07:33:02;4.90;;;4.50;;
5977;SDS011;3015;51.390;12.256;2022-08-21T07:35:27;4.73;;;4.20;;
5977;SDS011;3015;51.390;12.256;2022-08-21T07:37:53;8.47;;;5.30;;
5977;SDS011;3015;51.390;12.256;2022-08-21T07:40:19;8.67;;;5.03;;
5977;SDS011;3015;51.390;12.256;2022-08-21T07:42:46;5.63;;;4.00;;
5977;SDS011;3015;51.390;12.256;2022-08-21T07:45:14;4.77;;;4.37;;
5977;SDS011;3015;51.390;12.256;2022-08-21T07:47:40;5.30;;;4.87;;
5977;SDS011;3015;51.390;12.256;2022-08-21T07:50:06;4.67;;;3.80;;
5977;SDS011;3015;51.390;12.256;2022-08-21T07:52:32;5.03;;;4.60;;
5977;SDS011;3015;51.390;12.256;2022-08-21T07:54:59;6.87;;;4.67;;
5977;SDS011;3015;51.390;12.256;2022-08-21T07:57:24;5.03;;;4.63;;
5977;SDS011;3015;51.390;12.256;2022-08-21T07:59:50;5.03;;;4.63;;
5977;SDS011;3015;51.390;12.256;2022-08-21T08:02:26;8.50;;;4.60;;
5977;SDS011;3015;51.390;12.256;2022-08-21T08:04:57;4.73;;;4.40;;
5977;SDS011;3015;51.390;12.256;2022-08-21T08:07:28;4.00;;;3.70;;
5977;SDS011;3015;51.390;12.256;2022-08-21T08:09:54;5.60;;;3.60;;
5977;SDS011;3015;51.390;12.256;2022-08-21T08:12:20;5.17;;;4.70;;
5977;SDS011;3015;51.390;12.256;2022-08-21T08:14:46;4.73;;;4.30;;
5977;SDS011;3015;51.390;12.256;2022-08-21T08:17:11;3.53;;;3.23;;
5977;SDS011;3015;51.390;12.256;2022-08-21T08:19:38;5.10;;;4.07;;
5977;SDS011;3015;51.390;12.256;2022-08-21T08:22:14;3.60;;;3.40;;
5977;SDS011;3015;51.390;12.256;2022-08-21T08:24:44;3.93;;;3.60;;
5977;SDS011;3015;51.390;12.256;2022-08-21T08:27:11;4.53;;;3.70;;
5977;SDS011;3015;51.390;12.256;2022-08-21T08:29:36;3.93;;;3.63;;
5977;SDS011;3015;51.390;12.256;2022-08-21T08:32:03;4.00;;;3.70;;
5977;SDS011;3015;51.390;12.256;2022-08-21T08:34:32;4.67;;;4.20;;
5977;SDS011;3015;51.390;12.256;2022-08-21T08:36:58;5.47;;;3.53;;
5977;SDS011;3015;51.390;12.256;2022-08-21T08:39:24;5.30;;;3.27;;
5977;SDS011;3015;51.390;12.256;2022-08-21T08:41:52;4.20;;;3.80;;
5977;SDS011;3015;51.390;12.256;2022-08-21T08:44:29;3.73;;;3.37;;
5977;SDS011;3015;51.390;12.256;2022-08-21T08:46:55;3.77;;;3.37;;
5977;SDS011;3015;51.390;12.256;2022-08-21T08:49:23;4.07;;;3.47;;
5977;SDS011;3015;51.390;12.256;2022-08-21T08:52:02;3.97;;;2.90;;
5977;SDS011;3015;51.390;12.256;2022-08-21T08:57:09;3.20;;;2.90;;
5977;SDS011;3015;51.390;12.256;2022-08-21T08:59:41;3.60;;;2.50;;
5977;SDS011;3015;51.390;12.256;2022-08-21T09:02:13;5.10;;;2.60;;
5977;SDS011;3015;51.390;12.256;2022-08-21T09:04:40;2.43;;;2.20;;
5977;SDS011;3015;51.390;12.256;2022-08-21T09:20:47;2.40;;;2.30;;
5977;SDS011;3015;51.390;12.256;2022-08-21T09:26:23;3.20;;;3.00;;
5977;SDS011;3015;51.390;12.256;2022-08-21T09:28:52;2.80;;;2.63;;
5977;SDS011;3015;51.390;12.256;2022-08-21T09:31:23;4.27;;;3.00;;
5977;SDS011;3015;51.390;12.256;2022-08-21T09:33:50;3.20;;;2.90;;
5977;SDS011;3015;51.390;12.256;2022-08-21T09:36:24;3.33;;;3.03;;
5977;SDS011;3015;51.390;12.256;2022-08-21T09:38:56;4.50;;;2.90;;
5977;SDS011;3015;51.390;12.256;2022-08-21T09:41:26;3.17;;;2.87;;
5977;SDS011;3015;51.390;12.256;2022-08-21T09:43:54;3.93;;;3.27;;
5977;SDS011;3015;51.390;12.256;2022-08-21T09:46:21;3.97;;;2.90;;
5977;SDS011;3015;51.390;12.256;2022-08-21T09:48:50;5.60;;;3.20;;
5977;SDS011;3015;51.390;12.256;2022-08-21T09:51:36;3.53;;;3.23;;
5977;SDS011;3015;51.390;12.256;2022-08-21T09:56:51;3.83;;;3.07;;
5977;SDS011;3015;51.390;12.256;2022-08-21T09:59:38;4.60;;;3.23;;
5977;SDS011;3015;51.390;12.256;2022-08-21T10:02:22;3.20;;;2.90;;
5977;SDS011;3015;51.390;12.256;2022-08-21T10:04:52;3.97;;;3.67;;
5977;SDS011;3015;51.390;12.256;2022-08-21T10:07:22;3.63;;;3.10;;
5977;SDS011;3015;51.390;12.256;2022-08-21T10:09:59;3.60;;;3.30;;
5977;SDS011;3015;51.390;12.256;2022-08-21T10:12:33;3.73;;;3.43;;
5977;SDS011;3015;51.390;12.256;2022-08-21T10:15:22;3.33;;;3.07;;
5977;SDS011;3015;51.390;12.256;2022-08-21T10:20:37;4.00;;;3.13;;
5977;SDS011;3015;51.390;12.256;2022-08-21T10:26:11;4.90;;;3.37;;
5977;SDS011;3015;51.390;12.256;2022-08-21T10:28:47;4.77;;;3.77;;
5977;SDS011;3015;51.390;12.256;2022-08-21T10:40:19;3.10;;;2.90;;
5977;SDS011;3015;51.390;12.256;2022-08-21T10:42:29;3.23;;;2.90;;
5977;SDS011;3015;51.390;12.256;2022-08-21T10:45:27;3.73;;;3.37;;
5977;SDS011;3015;51.390;12.256;2022-08-21T10:48:05;4.13;;;3.73;;
5977;SDS011;3015;51.390;12.256;2022-08-21T10:50:37;4.30;;;3.70;;
5977;SDS011;3015;51.390;12.256;2022-08-21T10:56:33;3.80;;;3.47;;
5977;SDS011;3015;51.390;12.256;2022-08-21T11:02:00;4.77;;;3.80;;
5977;SDS011;3015;51.390;12.256;2022-08-21T11:10:16;3.47;;;3.20;;
5977;SDS011;3015;51.390;12.256;2022-08-21T11:12:44;3.43;;;3.10;;
5977;SDS011;3015;51.390;12.256;2022-08-21T11:18:00;4.10;;;3.13;;
5977;SDS011;3015;51.390;12.256;2022-08-21T11:20:48;3.53;;;3.23;;
5977;SDS011;3015;51.390;12.256;2022-08-21T11:23:41;4.93;;;3.37;;
5977;SDS011;3015;51.390;12.256;2022-08-21T11:26:38;6.70;;;3.30;;
5977;SDS011;3015;51.390;12.256;2022-08-21T11:29:27;3.00;;;2.80;;
5977;SDS011;3015;51.390;12.256;2022-08-21T11:36:58;3.90;;;3.50;;
5977;SDS011;3015;51.390;12.256;2022-08-21T11:45:20;3.57;;;3.23;;
5977;SDS011;3015;51.390;12.256;2022-08-21T11:50:35;3.60;;;3.30;;
5977;SDS011;3015;51.390;12.256;2022-08-21T11:53:16;3.40;;;3.17;;
5977;SDS011;3015;51.390;12.256;2022-08-21T11:55:45;5.80;;;3.20;;
5977;SDS011;3015;51.390;12.256;2022-08-21T12:00:46;3.83;;;3.40;;
5977;SDS011;3015;51.390;12.256;2022-08-21T12:03:16;4.10;;;3.70;;
5977;SDS011;3015;51.390;12.256;2022-08-21T12:05:55;4.63;;;3.83;;
5977;SDS011;3015;51.390;12.256;2022-08-21T12:08:31;3.90;;;3.60;;
5977;SDS011;3015;51.390;12.256;2022-08-21T12:13:53;4.07;;;3.60;;
5977;SDS011;3015;51.390;12.256;2022-08-21T12:16:34;4.20;;;3.60;;
5977;SDS011;3015;51.390;12.256;2022-08-21T12:26:58;3.53;;;3.23;;
5977;SDS011;3015;51.390;12.256;2022-08-21T12:29:38;4.33;;;3.67;;
5977;SDS011;3015;51.390;12.256;2022-08-21T12:34:36;4.67;;;3.40;;
5977;SDS011;3015;51.390;12.256;2022-08-21T12:37:24;3.90;;;3.60;;
5977;SDS011;3015;51.390;12.256;2022-08-21T12:39:52;4.00;;;3.73;;
5977;SDS011;3015;51.390;12.256;2022-08-21T12:42:24;4.10;;;3.70;;
5977;SDS011;3015;51.390;12.256;2022-08-21T12:45:04;4.40;;;4.00;;
5977;SDS011;3015;51.390;12.256;2022-08-21T12:47:47;3.80;;;3.33;;
5977;SDS011;3015;51.390;12.256;2022-08-21T12:50:24;3.40;;;3.10;;
5977;SDS011;3015;51.390;12.256;2022-08-21T12:55:47;4.23;;;3.83;;
5977;SDS011;3015;51.390;12.256;2022-08-21T12:58:17;4.27;;;3.87;;
5977;SDS011;3015;51.390;12.256;2022-08-21T13:00:49;5.87;;;4.27;;
5977;SDS011;3015;51.390;12.256;2022-08-21T13:03:17;3.87;;;2.80;;
5977;SDS011;3015;51.390;12.256;2022-08-21T13:05:43;4.10;;;3.63;;
5977;SDS011;3015;51.390;12.256;2022-08-21T13:08:10;4.43;;;4.10;;
5977;SDS011;3015;51.390;12.256;2022-08-21T13:10:39;4.23;;;3.90;;
5977;SDS011;3015;51.390;12.256;2022-08-21T13:13:17;3.97;;;3.43;;
5977;SDS011;3015;51.390;12.256;2022-08-21T13:15:46;3.40;;;3.20;;
5977;SDS011;3015;51.390;12.256;2022-08-21T13:18:22;3.57;;;3.37;;
5977;SDS011;3015;51.390;12.256;2022-08-21T13:21:02;3.80;;;3.50;;
5977;SDS011;3015;51.390;12.256;2022-08-21T13:23:30;3.30;;;3.10;;
5977;SDS011;3015;51.390;12.256;2022-08-21T13:25:57;3.57;;;3.10;;
5977;SDS011;3015;51.390;12.256;2022-08-21T13:28:22;4.47;;;3.60;;
5977;SDS011;3015;51.390;12.256;2022-08-21T13:30:53;3.83;;;3.40;;
5977;SDS011;3015;51.390;12.256;2022-08-21T13:33:21;4.20;;;3.77;;
5977;SDS011;3015;51.390;12.256;2022-08-21T13:38:25;5.37;;;3.67;;
5977;SDS011;3015;51.390;12.256;2022-08-21T13:40:55;4.53;;;3.20;;
5977;SDS011;3015;51.390;12.256;2022-08-21T13:43:43;3.50;;;3.20;;
5977;SDS011;3015;51.390;12.256;2022-08-21T13:46:10;3.80;;;3.50;;
5977;SDS011;3015;51.390;12.256;2022-08-21T13:48:39;3.87;;;3.37;;
5977;SDS011;3015;51.390;12.256;2022-08-21T13:51:07;6.10;;;4.00;;
5977;SDS011;3015;51.390;12.256;2022-08-21T13:53:35;4.60;;;4.17;;
5977;SDS011;3015;51.390;12.256;2022-08-21T13:56:21;4.17;;;3.67;;
5977;SDS011;3015;51.390;12.256;2022-08-21T13:58:51;4.17;;;3.60;;
5977;SDS011;3015;51.390;12.256;2022-08-21T14:03:46;4.10;;;3.43;;
5977;SDS011;3015;51.390;12.256;2022-08-21T14:06:15;4.10;;;3.70;;
5977;SDS011;3015;51.390;12.256;2022-08-21T14:08:53;4.13;;;3.50;;
5977;SDS011;3015;51.390;12.256;2022-08-21T14:11:25;3.70;;;3.37;;
5977;SDS011;3015;51.390;12.256;2022-08-21T14:16:23;8.03;;;3.80;;
5977;SDS011;3015;51.390;12.256;2022-08-21T14:21:24;4.73;;;3.70;;
5977;SDS011;3015;51.390;12.256;2022-08-21T14:26:36;3.90;;;3.63;;
5977;SDS011;3015;51.390;12.256;2022-08-21T14:29:09;4.23;;;3.17;;
5977;SDS011;3015;51.390;12.256;2022-08-21T14:31:37;5.90;;;3.80;;
5977;SDS011;3015;51.390;12.256;2022-08-21T14:34:03;3.90;;;3.60;;
5977;SDS011;3015;51.390;12.256;2022-08-21T14:36:28;4.73;;;4.17;;
5977;SDS011;3015;51.390;12.256;2022-08-21T14:38:54;4.17;;;3.77;;
5977;SDS011;3015;51.390;12.256;2022-08-21T14:41:21;8.73;;;3.90;;
5977;SDS011;3015;51.390;12.256;2022-08-21T14:43:49;3.70;;;3.40;;
5977;SDS011;3015;51.390;12.256;2022-08-21T14:46:21;3.27;;;3.07;;
5977;SDS011;3015;51.390;12.256;2022-08-21T14:48:52;5.50;;;3.60;;
5977;SDS011;3015;51.390;12.256;2022-08-21T14:51:17;5.13;;;4.33;;
5977;SDS011;3015;51.390;12.256;2022-08-21T14:53:43;4.63;;;4.10;;
5977;SDS011;3015;51.390;12.256;2022-08-21T14:56:09;5.50;;;3.87;;
5977;SDS011;3015;51.390;12.256;2022-08-21T14:58:40;4.20;;;3.90;;
5977;SDS011;3015;51.390;12.256;2022-08-21T15:01:08;3.70;;;3.50;;
5977;SDS011;3015;51.390;12.256;2022-08-21T15:03:36;3.70;;;3.40;;
5977;SDS011;3015;51.390;12.256;2022-08-21T15:06:02;7.67;;;3.70;;
5977;SDS011;3015;51.390;12.256;2022-08-21T15:08:30;4.40;;;4.10;;
5977;SDS011;3015;51.390;12.256;2022-08-21T15:10:55;3.60;;;3.40;;
5977;SDS011;3015;51.390;12.256;2022-08-21T15:13:21;3.77;;;3.23;;
5977;SDS011;3015;51.390;12.256;2022-08-21T15:15:48;3.67;;;3.37;;
5977;SDS011;3015;51.390;12.256;2022-08-21T15:18:17;6.27;;;4.40;;
5977;SDS011;3015;51.390;12.256;2022-08-21T15:20:47;4.93;;;3.87;;
5977;SDS011;3015;51.390;12.256;2022-08-21T15:23:13;7.27;;;4.00;;
5977;SDS011;3015;51.390;12.256;2022-08-21T15:25:43;6.03;;;4.10;;
5977;SDS011;3015;51.390;12.256;2022-08-21T15:28:11;4.80;;;4.00;;
5977;SDS011;3015;51.390;12.256;2022-08-21T15:30:39;3.77;;;3.47;;
5977;SDS011;3015;51.390;12.256;2022-08-21T15:33:06;4.43;;;4.13;;
5977;SDS011;3015;51.390;12.256;2022-08-21T15:35:33;4.37;;;3.80;;
5977;SDS011;3015;51.390;12.256;2022-08-21T15:37:58;3.93;;;3.37;;
5977;SDS011;3015;51.390;12.256;2022-08-21T15:40:24;4.40;;;3.70;;
5977;SDS011;3015;51.390;12.256;2022-08-21T15:42:51;4.07;;;3.77;;
5977;SDS011;3015;51.390;12.256;2022-08-21T15:45:21;3.80;;;3.47;;
5977;SDS011;3015;51.390;12.256;2022-08-21T15:47:46;3.80;;;3.50;;
5977;SDS011;3015;51.390;12.256;2022-08-21T15:50:14;3.87;;;3.57;;
5977;SDS011;3015;51.390;12.256;2022-08-21T15:52:41;4.73;;;3.57;;
5977;SDS011;3015;51.390;12.256;2022-08-21T15:55:07;4.77;;;3.57;;
5977;SDS011;3015;51.390;12.256;2022-08-21T15:57:34;5.53;;;3.57;;
5977;SDS011;3015;51.390;12.256;2022-08-21T16:00:03;3.20;;;2.90;;
5977;SDS011;3015;51.390;12.256;2022-08-21T16:02:38;4.13;;;3.83;;
5977;SDS011;3015;51.390;12.256;2022-08-21T16:05:07;4.20;;;3.90;;
5977;SDS011;3015;51.390;12.256;2022-08-21T16:07:35;4.63;;;4.03;;
5977;SDS011;3015;51.390;12.256;2022-08-21T16:10:01;4.00;;;3.40;;
5977;SDS011;3015;51.390;12.256;2022-08-21T16:12:29;4.90;;;4.37;;
5977;SDS011;3015;51.390;12.256;2022-08-21T16:14:57;5.30;;;4.57;;
5977;SDS011;3015;51.390;12.256;2022-08-21T16:17:26;6.77;;;4.03;;
5977;SDS011;3015;51.390;12.256;2022-08-21T16:19:54;3.90;;;3.23;;
5977;SDS011;3015;51.390;12.256;2022-08-21T16:22:20;4.10;;;3.80;;
5977;SDS011;3015;51.390;12.256;2022-08-21T16:24:46;3.90;;;3.60;;
5977;SDS011;3015;51.390;12.256;2022-08-21T16:27:12;4.10;;;3.80;;
5977;SDS011;3015;51.390;12.256;2022-08-21T16:29:38;4.23;;;3.67;;
5977;SDS011;3015;51.390;12.256;2022-08-21T16:32:04;4.13;;;3.80;;
5977;SDS011;3015;51.390;12.256;2022-08-21T16:34:31;4.03;;;3.70;;
5977;SDS011;3015;51.390;12.256;2022-08-21T16:36:58;4.27;;;3.87;;
5977;SDS011;3015;51.390;12.256;2022-08-21T16:39:23;4.57;;;4.13;;